Terminal Aerodrome Forecast
Issued by NWS

Home | Current Version | Previous Version | Text Only | Print | Product List | Glossary Off
Versions: 1 2 3 4 5 6 7 8 9 10 11 12 13 14 15

000
FTUS43 KICT 250231 AAA
TAFRSL
TAF AMD
KRSL 250231Z 2503/2524 16011KT P6SM SCT080 BKN120
      TEMPO 2503/2505 VRB30G40KT 2SM TSRA BKN035CB=

USA.gov is the U.S. government's official web portal to all federal, state and local government web resources and services.